Concho Valley, Arizona
Current Conditions -  °F | °C
As of 11:54 PM on Friday 19 Dec 2014 (Local Time) from KSJN Reporting Station
Clear Clear  
Wind Chill: 22°   Ceiling: Unl
Heat Index: 27°   Visibility: 10mi
Dew Point: 24°   Wind: 5mph
Humidity: 89%   Direction: 170°S
Pressure: 30.2"   Gusts: NA
Location:  34.4334°N, 109.652°W
Report Text: KSJN 200654Z AUTO 17004KT 10SM CLR M03/M04 A3020 RMK AO2 SLP226 T10281044 400611039
Loading
Personal Weather Stations






























Interactive Weather Map New forecast layout! Learn more

10-Day Weather Forecast

Advertisements
Track Severe Weather on mobile